< < Back
Terminal Aerodrome Forecast


Current Version              Previous Versions:   1  2  3  4  5  6  7  8  9  

Terminal Aerodrome Forecast

604
FTUS42 KFFC 010500 RRA
TAFPDK
TAF
KPDK 010542Z 0106/0206 00000KT P6SM SCT150
      TEMPO 0109/0113 4SM BR
     FM011400 VRB03KT P6SM SCT035 SCT150
     FM011800 24005KT P6SM SCT050 SCT150 PROB30 0120/0124 -TSRA
      BKN050CB
     FM020100 00000KT P6SM FEW060 SCT150=

Latest METAR

189
SAUS70 KWBC 011900 RRQ
MTRPDK
METAR KPDK 011853Z 23005KT 10SM FEW048 SCT085 SCT110 31/19 A3011 RMK AO2
SLP177 T03110194 $


USA.gov is the U.S. government's official web portal to all federal, state and local government web resources and services.